Flugplatz Wipperfürth-Neye

Für EDKN sind keine METAR/TAF Berichte vorhanden.
Es werden die Flugwettermeldungen vom Flugplatz Cologne Bonn in 32 km Entfernung angezeigt.

Bericht für EDDK

vom 15.07. um 17:20 UTC

variable Windrichtung mit 3 kt

Sichtweite 10 km oder mehr

gute Sicht, keine Wolken < 5000 ft, keine CB, keine Wettererscheinungen (CAVOK)

Temperatur 20.0°C

Taupunkt 9.0°C

Luftfeuchtigkeit 49%

Luftdruck 1015 hPa

keine wesentliche Wetteränderung innerhalb den nächsten 2 Stunden zu erwarten

EDDK 151720Z VRB03KT CAVOK 20/09 Q1015 NOSIG

Prognose für EDDK

vom 15.07. um 17:00 UTC

Zwischen 18:00 UTC und 00:00 UTC

Wind 7 kt aus 330°

Sichtweite 10 km oder mehr

aufgelockert bewölkt in 4000 ft


Zwischen 18:00 und 21:00 UTC übergehend zu

variable Windrichtung mit 3 kt

Sichtweite 10 km oder mehr

aufgelockert bewölkt in 4000 ft


Am 16.07. zwischen 02:00 UTC und 00:00 UTC zeitweise

Sichtweite 3000 m

schwacher Regen

schwacher Sprühregen

aufgebrochene Bewölkung in 1200 ft


Am 16.07. zwischen 03:00 UTC und 11:00 UTC zeitweise mit einer Wahrscheinlichkeit von 30%

Regen

Sprühregen

aufgebrochene Bewölkung in 700 ft


Am 16.07. zwischen 11:00 UTC und 17:00 UTC zeitweise

Wind 5 kt aus 290°

TAF EDDK 151700Z 1518/1624 33007KT 9999 SCT040 BECMG 1518/1521 VRB03KT TEMPO 1602/1624 3000 -RADZ BKN012 PROB30 TEMPO 1603/1611 RADZ BKN007 TEMPO 1611/1617 29005KT
Impressum